West Mifflin, PA (15122)

5:10 PM EDT on September 04, 2015 (GMT -0400)
Lower Gates Manor | | Change Station
CLOSE
Current Station
Personal Weather Station
Location: Munhall, PA
Elevation: 1050 ft
Nearby Weather Stations

Elev 1050 ft 40.39 °N, 79.92 °W | Updated 33 minutes ago

Clear
Clear
89.6 °F
Feels Like 91 °F
N
3.2
Wind Variable Wind from West

Today
High -- | Low -- °F
--% Chance of Precip.
Yesterday
High -- | Low -- °F
Precip. -- in
6:49 AM 7:47 PM
Waning Gibbous, 56% visible
Pressure 30.04 in
Visibility 10.0 miles
Clouds Clear
Heat Index 91 °F
Dew Point 63 °F
Humidity 42%
Rainfall 0.00 in
Snow Depth Not available.
UV 3 out of 12
Pollen 9.00 out of 12
Air Quality Not available.
Flu Activity Not available.
METAR KAGC 042053Z 18003KT 10SM CLR 31/12 A3005 RMK AO2 SLP171 T03060122 55009
Pressure 30.04 in
Visibility 10.0 miles
Clouds Clear
Heat Index 91 °F
Dew Point 63 °F
Humidity 42%
Rainfall 0.00 in
Snow Depth Not available.
UV 3 out of 12
Pollen 9.00 out of 12
Air Quality Not available.
Flu Activity Not available.
METAR KAGC 042053Z 18003KT 10SM CLR 31/12 A3005 RMK AO2 SLP171 T03060122 55009

10-Day Weather Forecast

×

Almanac

Astronomy

Sep. 04, 2015 Rise Set
Actual Time
Civil Twilight
Nautical Twilight
Astronomical Twilight
Moon
Length of Visible Light
Length of Day
Tomorrow will be .
, % of the Moon is Illuminated

Today's Extremes

State Highs State Lows

Community

WunderPhotos

Upload Photos

1,852,296 photos uploaded!

WunderBlogs® & News

Nearby

Air Quality

  Air Quality AQ Index Pollutant
Not available.

Snow Depth

Station Depth Elevation

Earthquake Activity

City Distance Mag. Time & Date
Minimum magnitude displayed is 2.5.

Coastal Water Temperatures

Place Temperature

Stations

Nearby Weather Stations

Station Location Temp. Windchill Dew Point Humidity Wind Precip. Elev Updated Type